Time;durP1;ratioP1;P1;durP2;ratioP2;P2;SDS_P1;SDS_P2;PMS_P1;PMS_P2;Temp;Humidity;BMP_temperature;BMP_pressure;BME280_temperature;BME280_humidity;BME280_pressure;Samples;Min_cycle;Max_cycle;Signal;HPM_P1;HPM_P2
2023/12/30 00:02:10;;;;;;;0.73;0.60;;;20.20;46.80;;;;;;10476175;28;20136;-46
2023/12/30 00:07:13;;;;;;;0.95;0.50;;;20.20;46.80;;;;;;10474181;28;20082;-46
2023/12/30 00:12:14;;;;;;;1.48;0.60;;;20.10;46.90;;;;;;10472017;28;20148;-46
2023/12/30 00:17:16;;;;;;;0.43;0.40;;;20.20;46.60;;;;;;10464532;28;20135;-45
2023/12/30 00:22:19;;;;;;;1.15;0.50;;;20.10;46.70;;;;;;10463530;28;20139;-45
2023/12/30 00:27:21;;;;;;;0.57;0.40;;;20.10;46.60;;;;;;10469253;28;20136;-49
2023/12/30 00:32:22;;;;;;;0.80;0.40;;;20.10;46.50;;;;;;10466288;28;20139;-46
2023/12/30 00:37:25;;;;;;;0.50;0.40;;;20.10;46.60;;;;;;10469876;28;20123;-48
2023/12/30 00:42:27;;;;;;;0.80;0.60;;;20.00;46.70;;;;;;10469033;28;20207;-46
2023/12/30 00:47:28;;;;;;;0.40;0.40;;;20.00;46.70;;;;;;10474747;28;20468;-46
2023/12/30 00:52:31;;;;;;;0.52;0.50;;;20.00;46.70;;;;;;10470017;28;20076;-47
2023/12/30 00:57:33;;;;;;;0.98;0.57;;;20.00;46.50;;;;;;10463429;28;20167;-50
2023/12/30 01:02:34;;;;;;;0.70;0.50;;;20.00;46.60;;;;;;10472326;28;20132;-47
2023/12/30 01:07:37;;;;;;;0.77;0.40;;;19.90;46.80;;;;;;10464739;28;20139;-45
2023/12/30 01:12:39;;;;;;;1.58;0.50;;;19.80;46.80;;;;;;10482176;28;20148;-45
2023/12/30 01:17:40;;;;;;;1.10;0.60;;;19.80;46.70;;;;;;10478970;28;20446;-45
2023/12/30 01:22:43;;;;;;;0.93;0.52;;;19.70;46.80;;;;;;10468155;28;20139;-45
2023/12/30 01:27:45;;;;;;;0.60;0.50;;;19.90;46.40;;;;;;10467593;28;20148;-45
2023/12/30 01:32:47;;;;;;;0.63;0.50;;;19.70;46.70;;;;;;10476801;28;20135;-45
2023/12/30 01:37:50;;;;;;;0.85;0.40;;;19.60;46.80;;;;;;10477687;28;20048;-46
2023/12/30 01:42:51;;;;;;;0.90;0.50;;;19.70;46.80;;;;;;10480372;28;20139;-45
2023/12/30 01:47:56;;;;;;;0.65;0.40;;;19.50;47.00;;;;;;10472253;28;20147;-47
2023/12/30 01:52:59;;;;;;;0.95;0.50;;;19.50;47.00;;;;;;10480921;28;20057;-45
2023/12/30 01:58:00;;;;;;;0.90;0.40;;;19.40;47.30;;;;;;10478559;28;20058;-46
2023/12/30 02:03:02;;;;;;;0.85;0.50;;;19.30;47.50;;;;;;10479275;28;20527;-45
2023/12/30 02:08:06;;;;;;;2.05;0.60;;;19.30;47.40;;;;;;10475942;28;20049;-45
2023/12/30 02:13:08;;;;;;;0.88;0.50;;;19.30;47.40;;;;;;10468446;28;20590;-47
2023/12/30 02:18:09;;;;;;;0.88;0.40;;;19.20;47.30;;;;;;10473482;28;20131;-47
2023/12/30 02:23:12;;;;;;;0.50;0.50;;;19.20;47.30;;;;;;10475015;28;20142;-45
2023/12/30 02:28:14;;;;;;;0.60;0.40;;;19.20;47.50;;;;;;10478289;28;20422;-46
2023/12/30 02:33:16;;;;;;;0.55;0.43;;;19.10;47.60;;;;;;10471326;28;20085;-46
2023/12/30 02:38:19;;;;;;;0.70;0.50;;;19.10;47.50;;;;;;10466897;28;20127;-47
2023/12/30 02:43:20;;;;;;;0.60;0.40;;;19.00;47.60;;;;;;10467846;28;20139;-47
2023/12/30 02:48:22;;;;;;;0.93;0.40;;;19.00;47.50;;;;;;10479027;28;20136;-45
2023/12/30 02:53:25;;;;;;;0.80;0.52;;;19.00;47.50;;;;;;10473990;28;20136;-47
2023/12/30 02:58:26;;;;;;;1.27;0.50;;;19.00;47.50;;;;;;10468880;28;20429;-46
2023/12/30 03:03:28;;;;;;;1.00;0.50;;;18.90;47.60;;;;;;10469471;28;20168;-46
2023/12/30 03:08:31;;;;;;;0.93;0.40;;;18.90;47.60;;;;;;10480924;28;20153;-47
2023/12/30 03:13:32;;;;;;;0.43;0.32;;;18.90;47.60;;;;;;10480747;28;20135;-46
2023/12/30 03:18:34;;;;;;;0.80;0.50;;;18.80;47.70;;;;;;10467611;28;20422;-46
2023/12/30 03:23:37;;;;;;;0.63;0.40;;;18.80;47.70;;;;;;10434569;28;1031499;-45
2023/12/30 03:28:39;;;;;;;0.43;0.40;;;18.70;47.80;;;;;;10469561;28;20135;-46
2023/12/30 03:33:40;;;;;;;0.50;0.43;;;18.80;47.80;;;;;;10478826;28;20186;-46
2023/12/30 03:38:43;;;;;;;0.65;0.43;;;18.60;47.90;;;;;;10476862;28;20139;-45
2023/12/30 03:43:46;;;;;;;1.33;0.50;;;18.70;47.80;;;;;;10467589;28;20131;-45
2023/12/30 03:48:47;;;;;;;0.80;0.50;;;18.70;47.80;;;;;;10476444;28;20135;-45
2023/12/30 03:53:50;;;;;;;0.75;0.50;;;18.60;47.80;;;;;;10470073;28;20574;-46
2023/12/30 03:58:53;;;;;;;0.52;0.40;;;18.60;47.80;;;;;;10474514;28;20044;-46
2023/12/30 04:03:54;;;;;;;0.90;0.47;;;18.60;47.90;;;;;;10473208;28;20049;-46
2023/12/30 04:08:57;;;;;;;1.02;0.50;;;18.50;48.00;;;;;;10471933;28;20105;-45
2023/12/30 04:13:59;;;;;;;0.85;0.45;;;19.00;46.80;;;;;;10469811;28;20143;-46
2023/12/30 04:19:01;;;;;;;1.05;0.50;;;19.60;45.50;;;;;;10474727;28;20530;-45
2023/12/30 04:24:04;;;;;;;1.02;0.38;;;19.40;46.20;;;;;;10476352;28;20098;-46
2023/12/30 04:29:06;;;;;;;0.65;0.40;;;19.20;46.90;;;;;;10466349;28;20136;-46
2023/12/30 04:34:07;;;;;;;0.77;0.52;;;19.40;47.20;;;;;;10465680;28;20152;-45
2023/12/30 04:39:10;;;;;;;1.02;0.50;;;19.30;47.30;;;;;;10468205;28;20075;-46
2023/12/30 04:44:12;;;;;;;0.60;0.40;;;19.50;47.00;;;;;;10467373;28;20131;-46
2023/12/30 04:49:14;;;;;;;1.15;0.55;;;19.80;46.80;;;;;;10476402;28;20489;-46
2023/12/30 04:54:16;;;;;;;1.27;0.50;;;19.90;46.60;;;;;;10471213;28;20131;-45
2023/12/30 04:59:18;;;;;;;0.70;0.50;;;20.00;46.50;;;;;;10465348;28;20046;-46
2023/12/30 05:04:20;;;;;;;0.65;0.40;;;20.10;46.30;;;;;;10470348;28;20139;-47
2023/12/30 05:09:23;;;;;;;1.35;0.50;;;20.20;46.30;;;;;;10472081;28;20051;-46
2023/12/30 05:14:24;;;;;;;0.75;0.40;;;20.30;46.30;;;;;;10467558;28;20131;-47
2023/12/30 05:19:26;;;;;;;1.30;0.52;;;20.30;46.40;;;;;;10467376;28;20140;-47
2023/12/30 05:24:29;;;;;;;0.30;0.30;;;20.30;46.30;;;;;;10469026;28;20641;-45
2023/12/30 05:29:30;;;;;;;0.63;0.38;;;20.30;46.30;;;;;;10471620;28;20128;-46
2023/12/30 05:34:32;;;;;;;0.95;0.50;;;20.40;46.30;;;;;;10467535;28;20132;-46
2023/12/30 05:39:35;;;;;;;0.63;0.50;;;20.50;46.30;;;;;;10462523;28;20045;-49
2023/12/30 05:44:37;;;;;;;1.35;0.50;;;20.50;46.30;;;;;;10472294;28;20139;-46
2023/12/30 05:49:40;;;;;;;0.50;0.40;;;20.60;46.30;;;;;;10462915;28;20139;-46
2023/12/30 05:54:44;;;;;;;0.32;0.30;;;20.60;46.30;;;;;;10470150;28;20136;-46
2023/12/30 05:59:46;;;;;;;0.75;0.50;;;20.70;46.20;;;;;;10472548;28;20076;-46
2023/12/30 06:04:47;;;;;;;0.60;0.60;;;20.70;46.10;;;;;;10473710;28;20487;-47
2023/12/30 06:09:50;;;;;;;0.55;0.47;;;20.80;46.30;;;;;;10464065;28;20143;-47
2023/12/30 06:14:52;;;;;;;0.63;0.40;;;20.70;46.50;;;;;;10466832;28;20128;-50
2023/12/30 06:19:54;;;;;;;0.60;0.40;;;20.80;46.60;;;;;;10485784;28;20047;-46
2023/12/30 06:24:56;;;;;;;0.45;0.30;;;20.80;46.60;;;;;;10467614;28;20044;-46
2023/12/30 06:29:58;;;;;;;0.57;0.43;;;20.80;46.50;;;;;;10466522;28;20740;-48
2023/12/30 06:35:09;;;;;;;0.82;0.50;;;20.80;46.50;;;;;;10472550;28;20143;-45
2023/12/30 06:40:15;;;;;;;;;;;20.80;46.50;;;;;;10473809;28;20100;-46
2023/12/30 06:45:17;;;;;;;0.30;0.30;;;20.70;46.50;;;;;;10480688;28;20436;-46
2023/12/30 06:50:20;;;;;;;1.48;0.55;;;20.80;46.50;;;;;;10469089;28;20128;-46
2023/12/30 06:55:23;;;;;;;0.80;0.50;;;20.80;46.50;;;;;;10470523;28;20115;-46
2023/12/30 07:00:25;;;;;;;0.45;0.30;;;20.90;46.50;;;;;;10472206;28;20044;-46
2023/12/30 07:05:26;;;;;;;0.80;0.40;;;20.90;46.50;;;;;;10472133;28;20044;-48
2023/12/30 07:10:29;;;;;;;1.02;0.52;;;20.90;46.50;;;;;;10481472;28;20303;-46
2023/12/30 07:15:31;;;;;;;0.50;0.40;;;21.00;46.40;;;;;;10473775;28;20144;-47
2023/12/30 07:20:34;;;;;;;0.40;0.40;;;21.10;46.30;;;;;;10474533;28;20513;-46
2023/12/30 07:25:40;;;;;;;0.52;0.43;;;21.00;46.40;;;;;;10477413;28;20083;-48
2023/12/30 07:30:41;;;;;;;0.80;0.60;;;21.20;46.20;;;;;;10468115;28;20083;-46
2023/12/30 07:35:43;;;;;;;0.65;0.40;;;21.20;46.40;;;;;;10467008;28;20067;-45
2023/12/30 07:40:46;;;;;;;1.33;0.52;;;21.20;46.40;;;;;;10469679;28;20041;-46
2023/12/30 07:45:47;;;;;;;0.73;0.40;;;21.20;46.30;;;;;;10469358;28;20052;-48
2023/12/30 07:50:49;;;;;;;0.50;0.40;;;21.20;46.40;;;;;;10473386;28;20036;-47
2023/12/30 07:55:52;;;;;;;0.38;0.38;;;21.20;46.30;;;;;;10473097;28;20056;-46
2023/12/30 08:00:53;;;;;;;1.30;0.60;;;21.30;46.20;;;;;;10470739;28;20070;-45
2023/12/30 08:05:55;;;;;;;0.82;0.55;;;21.20;46.20;;;;;;10469106;28;20063;-47
2023/12/30 08:10:59;;;;;;;0.85;0.50;;;21.30;46.20;;;;;;10460744;28;20051;-46
2023/12/30 08:16:01;;;;;;;1.17;0.50;;;21.40;46.00;;;;;;10482086;28;20048;-47
2023/12/30 08:21:02;;;;;;;1.15;0.50;;;21.40;46.10;;;;;;10460705;28;20045;-47
2023/12/30 08:26:05;;;;;;;0.85;0.65;;;21.40;46.10;;;;;;10471969;28;20051;-46
2023/12/30 08:31:07;;;;;;;1.20;0.50;;;21.40;46.00;;;;;;10470253;28;20058;-47
2023/12/30 08:36:08;;;;;;;0.52;0.40;;;21.40;46.10;;;;;;10473151;28;20049;-48
2023/12/30 08:41:14;;;;;;;1.45;0.57;;;21.50;45.90;;;;;;10478967;28;20051;-46
2023/12/30 08:46:16;;;;;;;0.63;0.40;;;21.50;45.90;;;;;;10465525;28;20437;-46
2023/12/30 08:51:17;;;;;;;0.75;0.50;;;21.50;45.90;;;;;;10463080;28;20044;-46
2023/12/30 08:56:20;;;;;;;0.73;0.43;;;21.50;46.00;;;;;;10464402;28;20060;-48
2023/12/30 09:01:22;;;;;;;0.85;0.57;;;21.60;45.80;;;;;;10471896;28;20474;-48
2023/12/30 09:06:24;;;;;;;0.40;0.40;;;21.60;45.90;;;;;;10478075;28;20044;-46
2023/12/30 09:11:26;;;;;;;1.20;0.60;;;21.60;45.90;;;;;;10472683;28;20037;-45
2023/12/30 09:16:28;;;;;;;0.75;0.50;;;21.60;45.90;;;;;;10470614;28;20045;-48
2023/12/30 09:21:29;;;;;;;0.85;0.50;;;21.60;45.90;;;;;;10469869;28;20037;-46
2023/12/30 09:26:32;;;;;;;0.50;0.43;;;21.60;45.90;;;;;;10475774;28;20136;-45
2023/12/30 09:31:34;;;;;;;0.65;0.52;;;21.70;45.90;;;;;;10457412;28;20040;-50
2023/12/30 09:36:35;;;;;;;0.80;0.40;;;21.70;45.70;;;;;;10465590;28;20049;-48
2023/12/30 09:41:39;;;;;;;0.30;0.30;;;21.70;45.70;;;;;;10468417;28;20041;-49
2023/12/30 09:46:40;;;;;;;0.52;0.50;;;21.80;45.60;;;;;;10467790;28;20048;-49
2023/12/30 09:51:42;;;;;;;0.68;0.40;;;21.70;45.70;;;;;;10473759;28;20051;-46
2023/12/30 09:56:45;;;;;;;0.82;0.40;;;21.80;45.60;;;;;;10480121;28;20049;-46
2023/12/30 10:01:46;;;;;;;1.05;0.50;;;21.80;45.70;;;;;;10475074;28;20045;-46
2023/12/30 10:06:49;;;;;;;0.80;0.50;;;21.80;45.70;;;;;;10470399;28;20055;-51
2023/12/30 10:11:52;;;;;;;0.73;0.32;;;21.90;45.70;;;;;;10468543;28;20067;-48
2023/12/30 10:16:53;;;;;;;0.80;0.40;;;21.90;45.70;;;;;;10482013;28;20047;-47
2023/12/30 10:21:55;;;;;;;0.90;0.50;;;21.90;45.60;;;;;;10476473;28;20444;-46
2023/12/30 10:27:03;;;;;;;0.40;0.35;;;21.90;45.40;;;;;;10475012;28;20063;-46
2023/12/30 10:32:08;;;;;;;0.65;0.50;;;22.00;45.50;;;;;;10480404;28;20136;-48
2023/12/30 10:37:10;;;;;;;0.70;0.40;;;22.00;45.40;;;;;;10482079;28;21733;-46
2023/12/30 10:42:13;;;;;;;0.68;0.40;;;22.00;45.30;;;;;;10472873;28;20598;-48
2023/12/30 10:47:15;;;;;;;0.70;0.40;;;22.00;45.30;;;;;;10469408;28;20140;-48
2023/12/30 10:52:17;;;;;;;0.75;0.50;;;22.00;45.20;;;;;;10472512;28;20536;-46
2023/12/30 10:57:20;;;;;;;1.27;0.50;;;22.00;45.30;;;;;;10480792;28;20486;-45
2023/12/30 11:02:22;;;;;;;0.55;0.50;;;22.00;45.30;;;;;;10486343;28;20163;-46
2023/12/30 11:07:24;;;;;;;0.95;0.40;;;22.00;45.20;;;;;;10474113;28;20047;-46
2023/12/30 11:12:31;;;;;;;0.77;0.60;;;22.10;45.10;;;;;;10473645;28;20143;-47
2023/12/30 11:17:35;;;;;;;1.33;0.50;;;22.20;45.00;;;;;;10472026;28;20045;-48
2023/12/30 11:22:37;;;;;;;0.63;0.43;;;22.20;44.90;;;;;;10473850;28;20698;-45
2023/12/30 11:27:40;;;;;;;0.47;0.40;;;22.20;44.90;;;;;;10472851;28;20494;-46
2023/12/30 11:32:42;;;;;;;0.40;0.40;;;22.10;45.10;;;;;;10474090;28;20044;-49
2023/12/30 11:37:44;;;;;;;0.50;0.40;;;22.20;45.60;;;;;;10474178;28;20041;-47
2023/12/30 11:42:47;;;;;;;0.50;0.50;;;22.20;44.80;;;;;;10472205;28;20045;-45
2023/12/30 11:47:49;;;;;;;0.73;0.40;;;22.20;45.00;;;;;;10484953;28;20136;-48
2023/12/30 11:52:51;;;;;;;0.30;0.30;;;22.20;44.80;;;;;;10473489;28;20045;-49
2023/12/30 11:57:54;;;;;;;0.40;0.30;;;22.10;45.00;;;;;;10467096;28;20422;-46
2023/12/30 12:02:57;;;;;;;0.40;0.40;;;22.20;44.80;;;;;;10469483;28;20136;-46
2023/12/30 12:07:59;;;;;;;0.70;0.40;;;22.20;44.80;;;;;;10468424;28;20140;-46
2023/12/30 12:13:02;;;;;;;0.38;0.38;;;22.30;44.80;;;;;;10481404;28;20135;-46
2023/12/30 12:18:04;;;;;;;0.60;0.40;;;22.30;44.70;;;;;;10473694;28;20045;-46
2023/12/30 12:23:06;;;;;;;0.50;0.40;;;22.30;44.80;;;;;;10470674;28;20175;-47
2023/12/30 12:28:10;;;;;;;0.88;0.60;;;22.30;44.80;;;;;;10476033;28;20052;-46
2023/12/30 12:33:12;;;;;;;0.40;0.40;;;22.40;44.70;;;;;;10474036;28;20487;-46
2023/12/30 12:38:14;;;;;;;1.13;0.45;;;22.20;44.90;;;;;;10470803;28;20056;-46
2023/12/30 12:43:18;;;;;;;0.50;0.40;;;22.30;44.80;;;;;;10467873;28;20048;-46
2023/12/30 12:48:20;;;;;;;1.02;0.40;;;22.30;44.80;;;;;;10466250;28;20087;-46
2023/12/30 12:53:21;;;;;;;0.40;0.40;;;22.40;44.80;;;;;;10475584;28;20048;-49
2023/12/30 12:58:24;;;;;;;0.35;0.35;;;22.40;44.70;;;;;;10473714;28;20539;-46
2023/12/30 13:03:26;;;;;;;0.50;0.40;;;22.40;44.80;;;;;;10469816;28;20135;-46
2023/12/30 13:08:29;;;;;;;0.57;0.40;;;22.30;44.80;;;;;;10470929;28;20048;-47
2023/12/30 13:13:32;;;;;;;0.30;0.30;;;22.30;45.00;;;;;;10472076;28;20080;-49
2023/12/30 13:18:33;;;;;;;0.40;0.40;;;22.50;44.80;;;;;;10476716;28;20131;-46
2023/12/30 13:23:35;;;;;;;0.70;0.50;;;22.40;44.70;;;;;;10468405;28;20049;-49
2023/12/30 13:28:38;;;;;;;0.50;0.40;;;22.40;44.70;;;;;;10468073;28;20140;-48
2023/12/30 13:33:42;;;;;;;0.93;0.60;;;22.50;44.60;;;;;;10478467;28;20049;-46
2023/12/30 13:38:50;;;;;;;0.52;0.45;;;22.50;44.60;;;;;;10478994;28;20041;-49
2023/12/30 13:43:54;;;;;;;0.40;0.40;;;22.50;44.60;;;;;;10487905;28;20040;-48
2023/12/30 13:54:17;;;;;;;0.47;0.40;;;22.40;44.70;;;;;;10477031;28;20055;-46
2023/12/30 13:59:22;;;;;;;0.95;0.45;;;22.50;44.70;;;;;;10475314;28;20080;-46
2023/12/30 14:04:25;;;;;;;0.40;0.40;;;22.50;44.60;;;;;;10478797;28;20053;-47
2023/12/30 14:09:37;;;;;;;0.43;0.43;;;22.50;44.60;;;;;;10489911;28;20423;-48
2023/12/30 14:14:52;;;;;;;0.77;0.40;;;22.50;44.60;;;;;;10477462;28;20051;-49
2023/12/30 14:19:54;;;;;;;0.73;0.60;;;22.50;44.60;;;;;;10473116;28;20068;-46
2023/12/30 14:24:56;;;;;;;0.32;0.32;;;22.60;44.50;;;;;;10479726;28;20070;-47
2023/12/30 14:30:00;;;;;;;1.58;0.60;;;22.50;44.50;;;;;;10478335;28;20388;-49
2023/12/30 14:35:03;;;;;;;0.63;0.50;;;22.50;44.60;;;;;;10471329;28;20044;-48
2023/12/30 14:40:06;;;;;;;0.85;0.40;;;22.50;44.60;;;;;;10472505;28;20052;-49
2023/12/30 14:45:10;;;;;;;0.85;0.40;;;22.60;44.60;;;;;;10470863;28;20570;-47
2023/12/30 14:50:11;;;;;;;1.30;0.50;;;22.60;44.50;;;;;;10471748;28;20124;-46
2023/12/30 14:55:13;;;;;;;0.52;0.40;;;22.60;44.50;;;;;;10480899;28;20531;-46
2023/12/30 15:00:20;;;;;;;0.65;0.50;;;22.60;44.50;;;;;;10483841;28;20116;-51
2023/12/30 15:05:22;;;;;;;0.52;0.43;;;22.60;44.50;;;;;;10474873;28;20055;-48
2023/12/30 15:10:23;;;;;;;0.75;0.57;;;22.60;44.50;;;;;;10476384;28;20418;-47
2023/12/30 15:15:26;;;;;;;1.02;0.52;;;22.70;44.40;;;;;;10480091;28;20057;-46
2023/12/30 15:20:28;;;;;;;0.60;0.35;;;22.70;44.40;;;;;;10467043;28;20048;-49
2023/12/30 15:25:31;;;;;;;1.48;0.50;;;22.70;44.60;;;;;;10474151;28;20140;-46
2023/12/30 15:30:34;;;;;;;0.60;0.50;;;22.70;44.40;;;;;;10470606;28;20080;-46
2023/12/30 15:35:37;;;;;;;0.68;0.50;;;22.70;44.50;;;;;;10473085;28;20099;-48
2023/12/30 15:40:40;;;;;;;0.85;0.40;;;22.70;44.30;;;;;;10480316;28;20410;-47
2023/12/30 15:45:44;;;;;;;0.47;0.40;;;22.80;44.30;;;;;;10470475;28;20060;-50
2023/12/30 15:50:46;;;;;;;0.68;0.50;;;22.80;44.30;;;;;;10469359;28;20072;-47
2023/12/30 15:55:48;;;;;;;0.60;0.50;;;22.70;44.40;;;;;;10474949;28;20136;-46
2023/12/30 16:00:51;;;;;;;1.13;0.45;;;22.70;44.40;;;;;;10470276;28;20050;-48
2023/12/30 16:05:52;;;;;;;0.93;0.50;;;22.70;44.50;;;;;;10482666;28;20048;-46
2023/12/30 16:10:57;;;;;;;0.50;0.40;;;22.70;44.50;;;;;;10466846;28;20049;-49
2023/12/30 16:16:00;;;;;;;0.82;0.40;;;22.80;44.30;;;;;;10472530;28;20407;-46
2023/12/30 16:21:02;;;;;;;0.47;0.47;;;22.80;44.40;;;;;;10476580;28;20071;-46
2023/12/30 16:26:05;;;;;;;0.40;0.40;;;22.80;44.20;;;;;;10471203;28;20053;-46
2023/12/30 16:31:08;;;;;;;0.65;0.50;;;22.80;44.30;;;;;;10463171;28;20042;-46
2023/12/30 16:36:10;;;;;;;0.90;0.40;;;22.80;44.30;;;;;;10464797;28;20136;-49
2023/12/30 16:41:12;;;;;;;0.98;0.60;;;22.80;44.30;;;;;;10467749;28;20506;-47
2023/12/30 16:46:18;;;;;;;0.40;0.40;;;22.80;44.30;;;;;;10472466;28;20106;-45
2023/12/30 16:51:20;;;;;;;0.63;0.40;;;22.80;44.30;;;;;;10469415;28;20051;-48
2023/12/30 16:56:21;;;;;;;0.50;0.50;;;22.80;44.40;;;;;;10471298;28;20052;-47
2023/12/30 17:01:24;;;;;;;0.57;0.40;;;22.80;44.40;;;;;;10462469;28;20059;-46
2023/12/30 17:06:29;;;;;;;0.52;0.50;;;22.80;44.30;;;;;;10466615;28;20063;-50
2023/12/30 17:11:31;;;;;;;0.75;0.50;;;22.80;44.30;;;;;;10476249;28;20075;-47
2023/12/30 17:16:34;;;;;;;0.50;0.50;;;22.80;44.30;;;;;;10472559;28;20139;-47
2023/12/30 17:21:36;;;;;;;0.63;0.40;;;22.70;44.40;;;;;;10472532;28;20131;-48
2023/12/30 17:26:37;;;;;;;0.52;0.43;;;22.80;44.40;;;;;;10465512;28;20051;-47
2023/12/30 17:31:40;;;;;;;0.60;0.50;;;22.90;44.20;;;;;;10471531;28;20132;-46
2023/12/30 17:36:42;;;;;;;0.70;0.43;;;22.90;44.30;;;;;;10479058;28;20143;-49
2023/12/30 17:41:44;;;;;;;0.50;0.50;;;22.90;44.20;;;;;;10466676;28;20049;-49
2023/12/30 17:46:46;;;;;;;0.50;0.45;;;22.80;44.40;;;;;;10468133;28;20049;-47
2023/12/30 17:51:48;;;;;;;0.57;0.40;;;22.90;44.30;;;;;;10462946;28;20049;-46
2023/12/30 17:56:50;;;;;;;0.40;0.40;;;22.90;44.20;;;;;;10477620;28;20052;-47
2023/12/30 18:01:52;;;;;;;0.50;0.43;;;22.90;44.30;;;;;;10474442;28;20047;-47
2023/12/30 18:06:54;;;;;;;0.80;0.50;;;22.90;44.40;;;;;;10463203;28;20053;-46
2023/12/30 18:11:57;;;;;;;0.75;0.60;;;22.90;44.30;;;;;;10469061;28;20067;-50
2023/12/30 18:17:00;;;;;;;0.65;0.43;;;22.90;44.20;;;;;;10469054;28;20079;-48
2023/12/30 18:22:02;;;;;;;0.73;0.50;;;22.90;44.40;;;;;;10480690;28;20047;-46
2023/12/30 18:27:04;;;;;;;0.80;0.60;;;22.90;44.20;;;;;;10475797;28;20131;-45
2023/12/30 18:32:10;;;;;;;1.08;0.60;;;22.90;44.20;;;;;;10471733;28;20132;-49
2023/12/30 18:37:13;;;;;;;0.55;0.50;;;22.80;44.30;;;;;;10474130;28;20582;-50
2023/12/30 18:42:15;;;;;;;0.55;0.50;;;22.90;44.20;;;;;;10471158;28;20036;-46
2023/12/30 18:47:18;;;;;;;0.50;0.50;;;22.90;44.30;;;;;;10473689;28;20049;-45
2023/12/30 18:52:20;;;;;;;0.77;0.60;;;23.00;44.20;;;;;;10475179;28;20127;-47
2023/12/30 18:57:21;;;;;;;0.55;0.52;;;22.90;44.10;;;;;;10474435;28;20507;-46
2023/12/30 19:02:24;;;;;;;0.63;0.50;;;22.90;44.30;;;;;;10474797;28;20099;-46
2023/12/30 19:07:26;;;;;;;0.80;0.60;;;22.90;44.80;;;;;;10477457;28;20058;-51
2023/12/30 19:12:27;;;;;;;0.75;0.60;;;23.00;44.20;;;;;;10482227;28;20505;-46
2023/12/30 19:17:30;;;;;;;0.52;0.52;;;22.90;44.10;;;;;;10469871;28;20475;-50
2023/12/30 19:22:32;;;;;;;0.88;0.60;;;23.00;43.90;;;;;;10463749;28;20079;-46
2023/12/30 19:27:34;;;;;;;0.70;0.57;;;23.10;43.70;;;;;;10470836;28;20396;-46
2023/12/30 19:32:37;;;;;;;0.80;0.55;;;23.10;43.40;;;;;;10477297;28;20051;-51
2023/12/30 19:37:41;;;;;;;1.38;0.63;;;23.20;43.30;;;;;;10477294;28;20143;-46
2023/12/30 19:42:46;;;;;;;0.80;0.60;;;23.10;43.40;;;;;;10468388;28;20048;-46
2023/12/30 19:47:49;;;;;;;0.50;0.50;;;23.10;43.40;;;;;;10465033;28;20076;-48
2023/12/30 19:52:51;;;;;;;0.98;0.50;;;23.00;43.50;;;;;;10478480;28;20144;-49
2023/12/30 19:57:53;;;;;;;0.40;0.40;;;23.00;43.60;;;;;;10471686;28;20044;-50
2023/12/30 20:02:55;;;;;;;0.50;0.40;;;22.90;43.50;;;;;;10478935;28;20041;-46
2023/12/30 20:07:57;;;;;;;0.60;0.47;;;22.70;43.90;;;;;;10471419;28;20044;-46
2023/12/30 20:13:00;;;;;;;0.77;0.50;;;22.80;43.80;;;;;;10476493;28;20058;-46
2023/12/30 20:18:04;;;;;;;0.50;0.50;;;22.70;43.80;;;;;;10473692;28;20053;-48
2023/12/30 20:23:05;;;;;;;0.60;0.55;;;22.70;43.70;;;;;;10470412;28;20078;-46
2023/12/30 20:28:07;;;;;;;0.50;0.50;;;22.70;43.90;;;;;;10457993;28;20071;-47
2023/12/30 20:33:10;;;;;;;0.75;0.60;;;22.60;43.70;;;;;;10467599;28;20449;-46
2023/12/30 20:38:13;;;;;;;0.82;0.60;;;22.70;43.40;;;;;;10469853;28;20495;-48
2023/12/30 20:43:15;;;;;;;0.77;0.68;;;22.80;43.30;;;;;;10477127;28;20131;-47
2023/12/30 20:48:18;;;;;;;0.63;0.50;;;22.70;43.40;;;;;;10473010;28;20135;-46
2023/12/30 20:53:19;;;;;;;0.70;0.60;;;22.70;43.50;;;;;;10471435;28;20464;-51
2023/12/30 20:58:21;;;;;;;0.93;0.70;;;22.70;43.40;;;;;;10466669;28;20074;-49
2023/12/30 21:03:24;;;;;;;0.70;0.47;;;22.60;43.40;;;;;;10461850;28;20044;-47
2023/12/30 21:08:25;;;;;;;0.82;0.60;;;22.40;43.90;;;;;;10476042;28;20098;-51
2023/12/30 21:13:27;;;;;;;0.93;0.60;;;22.50;43.60;;;;;;10469591;28;20219;-46
2023/12/30 21:18:32;;;;;;;0.40;0.40;;;22.40;43.50;;;;;;10469069;28;20495;-46
2023/12/30 21:23:34;;;;;;;1.17;0.63;;;22.50;43.30;;;;;;10469972;28;20044;-47
2023/12/30 21:28:35;;;;;;;0.63;0.50;;;22.50;43.40;;;;;;10471695;28;20144;-46
2023/12/30 21:33:38;;;;;;;1.08;0.73;;;22.30;43.90;;;;;;10472067;28;20143;-48
2023/12/30 21:38:40;;;;;;;0.73;0.60;;;22.20;43.70;;;;;;10465668;28;20045;-46
2023/12/30 21:43:41;;;;;;;1.05;0.60;;;22.00;44.30;;;;;;10464556;28;20471;-47
2023/12/30 21:48:44;;;;;;;0.80;0.60;;;21.90;44.60;;;;;;10471477;28;20479;-45
2023/12/30 21:53:46;;;;;;;0.75;0.50;;;21.80;44.80;;;;;;10481130;28;20040;-49
2023/12/30 21:58:48;;;;;;;0.75;0.60;;;21.60;45.00;;;;;;10485761;28;20055;-50
2023/12/30 22:03:50;;;;;;;0.50;0.50;;;21.40;45.30;;;;;;10478519;28;20047;-49
2023/12/30 22:08:52;;;;;;;0.60;0.60;;;21.40;45.40;;;;;;10474272;28;20040;-49
2023/12/30 22:13:54;;;;;;;0.88;0.60;;;21.20;45.80;;;;;;10485507;28;20127;-48
2023/12/30 22:18:57;;;;;;;0.82;0.70;;;21.10;45.60;;;;;;10476569;28;20055;-53
2023/12/30 22:23:58;;;;;;;0.60;0.60;;;21.00;46.00;;;;;;10476224;28;20161;-46
2023/12/30 22:29:00;;;;;;;1.10;0.60;;;20.90;46.10;;;;;;10471396;28;20132;-47
2023/12/30 22:34:03;;;;;;;0.55;0.50;;;20.80;46.40;;;;;;10476351;28;20477;-49
2023/12/30 22:39:04;;;;;;;0.98;0.50;;;20.90;46.20;;;;;;10482775;28;20143;-45
2023/12/30 22:44:06;;;;;;;0.63;0.52;;;20.80;46.20;;;;;;10475280;28;20050;-49
2023/12/30 22:49:09;;;;;;;0.70;0.68;;;20.80;46.20;;;;;;10475816;28;20139;-46
2023/12/30 22:54:10;;;;;;;0.93;0.50;;;20.80;46.40;;;;;;10476048;28;20048;-50
2023/12/30 22:59:14;;;;;;;0.65;0.57;;;20.80;46.40;;;;;;10479151;28;20139;-45
2023/12/30 23:04:17;;;;;;;0.82;0.73;;;20.70;46.40;;;;;;10478703;28;20226;-46
2023/12/30 23:09:19;;;;;;;0.70;0.60;;;20.70;46.30;;;;;;10472074;28;20056;-46
2023/12/30 23:14:23;;;;;;;0.70;0.50;;;20.60;46.50;;;;;;10477178;28;21000;-48
2023/12/30 23:19:26;;;;;;;1.15;0.68;;;20.50;46.60;;;;;;10473551;28;20056;-46
2023/12/30 23:24:27;;;;;;;0.88;0.60;;;20.60;46.50;;;;;;10478542;28;20484;-46
2023/12/30 23:29:29;;;;;;;0.70;0.60;;;20.60;46.40;;;;;;10486010;28;20076;-47
2023/12/30 23:34:32;;;;;;;0.65;0.50;;;20.50;46.70;;;;;;10475693;28;20090;-46
2023/12/30 23:39:33;;;;;;;0.80;0.50;;;20.50;46.50;;;;;;10473296;28;20139;-46
2023/12/30 23:44:35;;;;;;;1.75;0.80;;;20.50;46.60;;;;;;10471949;28;20053;-49
2023/12/30 23:49:38;;;;;;;0.93;0.60;;;20.50;46.40;;;;;;10481898;28;20517;-49
2023/12/30 23:54:40;;;;;;;0.85;0.70;;;20.50;46.30;;;;;;10479072;28;20139;-46
2023/12/30 23:59:41;;;;;;;0.52;0.52;;;20.50;46.50;;;;;;10470392;28;20135;-45
